Time;durP1;ratioP1;P1;durP2;ratioP2;P2;SDS_P1;SDS_P2;PMS_P1;PMS_P2;Temp;Humidity;BMP_temperature;BMP_pressure;BME280_temperature;BME280_humidity;BME280_pressure;Samples;Min_cycle;Max_cycle;Signal;HPM_P1;HPM_P2
2021/12/27 00:00:23;;;;;;;4.77;3.47;;;9.50;99.90;;;;;;5069435;28;20231;-82
2021/12/27 00:02:51;;;;;;;3.90;3.50;;;9.50;99.90;;;;;;5052475;28;20213;-82
2021/12/27 00:05:17;;;;;;;4.10;3.33;;;9.60;99.90;;;;;;5070315;28;20176;-76
2021/12/27 00:07:47;;;;;;;4.30;3.60;;;9.50;99.90;;;;;;5070673;28;20572;-82
2021/12/27 00:10:13;;;;;;;4.63;3.90;;;9.60;99.90;;;;;;5053108;28;20230;-81
2021/12/27 00:12:40;;;;;;;4.87;3.60;;;9.60;99.90;;;;;;5052256;28;20349;-82
2021/12/27 00:15:06;;;;;;;6.23;4.10;;;9.20;99.90;;;;;;5070290;28;21174;-83
2021/12/27 00:17:32;;;;;;;5.10;3.70;;;9.20;99.90;;;;;;5069339;28;20685;-82
2021/12/27 00:19:58;;;;;;;4.23;3.77;;;9.30;99.90;;;;;;5052790;28;20200;-76
2021/12/27 00:22:24;;;;;;;5.20;4.13;;;9.10;99.90;;;;;;5069349;28;20215;-82
2021/12/27 00:24:50;;;;;;;3.97;3.33;;;8.90;99.90;;;;;;5068646;28;20705;-75
2021/12/27 00:27:17;;;;;;;4.17;3.77;;;8.80;99.90;;;;;;5068346;28;20207;-75
2021/12/27 00:29:44;;;;;;;4.17;3.53;;;8.90;99.90;;;;;;5070375;28;20648;-82
2021/12/27 00:32:10;;;;;;;4.90;3.53;;;9.00;99.90;;;;;;5068910;28;20192;-82
2021/12/27 00:34:36;;;;;;;5.00;3.50;;;9.00;99.90;;;;;;5052152;28;20173;-76
2021/12/27 00:37:07;;;;;;;5.03;3.77;;;9.00;99.90;;;;;;5052463;28;20218;-75
2021/12/27 00:39:33;;;;;;;5.37;3.70;;;8.90;99.90;;;;;;5052377;28;20192;-76
2021/12/27 00:41:59;;;;;;;3.97;3.17;;;8.80;99.90;;;;;;5072779;28;20786;-82
2021/12/27 00:44:25;;;;;;;4.03;3.47;;;8.90;99.90;;;;;;5056599;28;20193;-76
2021/12/27 00:46:51;;;;;;;4.33;3.00;;;8.80;99.90;;;;;;5073896;28;20614;-75
2021/12/27 00:49:18;;;;;;;4.10;3.20;;;8.80;99.90;;;;;;5072689;28;20592;-77
2021/12/27 00:51:44;;;;;;;3.80;3.10;;;9.00;99.90;;;;;;5072868;28;20203;-76
2021/12/27 00:54:10;;;;;;;4.80;3.10;;;8.90;99.90;;;;;;5056166;28;20196;-82
2021/12/27 00:56:35;;;;;;;3.67;3.10;;;8.80;99.90;;;;;;5073728;28;20192;-76
2021/12/27 00:59:01;;;;;;;3.83;3.13;;;9.00;99.90;;;;;;5039697;28;20703;-82
2021/12/27 01:01:27;;;;;;;5.43;3.53;;;8.80;99.90;;;;;;5039052;28;20213;-80
2021/12/27 01:03:53;;;;;;;4.80;3.47;;;8.80;99.90;;;;;;5023167;28;20184;-81
2021/12/27 01:06:18;;;;;;;4.47;3.47;;;9.00;99.90;;;;;;5055358;28;20196;-84
2021/12/27 01:08:44;;;;;;;6.13;3.70;;;9.10;99.90;;;;;;5051229;28;20216;-76
2021/12/27 01:13:59;;;;;;;5.27;3.53;;;9.30;99.90;;;;;;5072868;28;20192;-83
2021/12/27 01:16:25;;;;;;;4.23;3.40;;;9.30;99.90;;;;;;5073642;28;20215;-83
2021/12/27 01:18:54;;;;;;;5.67;3.73;;;9.30;99.90;;;;;;5073332;28;20618;-76
2021/12/27 01:21:24;;;;;;;3.93;3.20;;;9.20;99.90;;;;;;5055949;28;20208;-82
2021/12/27 01:23:51;;;;;;;4.30;3.53;;;9.10;99.90;;;;;;5072361;28;20698;-78
2021/12/27 01:26:17;;;;;;;6.67;3.73;;;9.30;99.90;;;;;;5038965;28;20564;-83
2021/12/27 01:28:44;;;;;;;6.60;4.20;;;9.30;99.90;;;;;;5055778;28;20319;-77
2021/12/27 01:31:10;;;;;;;7.10;4.33;;;9.30;99.90;;;;;;5073191;28;20189;-77
2021/12/27 01:33:36;;;;;;;5.13;3.90;;;9.40;99.90;;;;;;5038542;28;20738;-83
2021/12/27 01:36:04;;;;;;;6.30;4.33;;;9.40;99.90;;;;;;5073725;28;20305;-82
2021/12/27 01:38:30;;;;;;;6.67;4.20;;;9.40;99.90;;;;;;5072426;28;20539;-75
2021/12/27 01:40:57;;;;;;;5.63;3.93;;;9.40;99.90;;;;;;5055597;28;20215;-82
2021/12/27 01:43:26;;;;;;;5.40;3.97;;;9.40;99.90;;;;;;5072268;28;20256;-75
2021/12/27 01:45:56;;;;;;;6.77;4.23;;;9.40;99.90;;;;;;5073091;28;20318;-76
2021/12/27 01:48:25;;;;;;;5.17;4.17;;;9.40;99.90;;;;;;5073627;28;20678;-83
2021/12/27 01:50:53;;;;;;;6.53;4.37;;;9.50;99.90;;;;;;5040376;28;20195;-82
2021/12/27 01:53:22;;;;;;;6.17;4.60;;;9.60;99.90;;;;;;5054918;28;20177;-77
2021/12/27 01:55:48;;;;;;;5.17;4.07;;;9.60;99.90;;;;;;5071249;28;20220;-82
2021/12/27 01:58:14;;;;;;;6.37;4.27;;;9.50;99.90;;;;;;5071884;28;20738;-76
2021/12/27 02:00:43;;;;;;;7.07;4.33;;;9.40;99.90;;;;;;5071707;28;20334;-76
2021/12/27 02:03:10;;;;;;;5.90;3.97;;;9.40;99.90;;;;;;5054542;28;20357;-78
2021/12/27 02:05:39;;;;;;;5.37;3.80;;;9.50;99.90;;;;;;5070238;28;20207;-77
2021/12/27 02:08:05;;;;;;;5.77;4.13;;;9.50;99.90;;;;;;5054967;28;20196;-76
2021/12/27 02:10:32;;;;;;;5.40;4.00;;;9.40;99.90;;;;;;5054936;28;20211;-82
2021/12/27 02:12:58;;;;;;;5.20;3.97;;;9.50;99.90;;;;;;5071098;28;20618;-78
2021/12/27 02:15:24;;;;;;;5.83;3.93;;;9.50;99.90;;;;;;5071124;28;20212;-82
2021/12/27 02:17:49;;;;;;;5.90;4.07;;;9.50;99.90;;;;;;5054592;28;20343;-82
2021/12/27 02:20:22;;;;;;;6.33;3.60;;;9.50;99.90;;;;;;5070875;28;20210;-82
2021/12/27 02:22:49;;;;;;;5.03;4.10;;;9.40;99.90;;;;;;5072133;28;20561;-81
2021/12/27 02:25:16;;;;;;;6.47;4.30;;;9.60;99.90;;;;;;5054609;28;20207;-82
2021/12/27 02:27:43;;;;;;;5.40;3.67;;;9.40;99.90;;;;;;5070881;28;20200;-82
2021/12/27 02:30:13;;;;;;;5.37;3.87;;;9.40;99.90;;;;;;5070769;28;20295;-77
2021/12/27 02:32:48;;;;;;;5.47;3.87;;;9.40;99.90;;;;;;5052722;28;20208;-76
2021/12/27 02:35:20;;;;;;;4.33;3.63;;;9.40;99.90;;;;;;5085656;28;20215;-78
2021/12/27 02:37:46;;;;;;;6.33;3.70;;;9.40;99.90;;;;;;5071069;28;20211;-83
2021/12/27 02:40:12;;;;;;;4.93;3.00;;;9.40;99.90;;;;;;5071716;28;20663;-77
2021/12/27 02:43:00;;;;;;;5.10;3.70;;;9.40;99.90;;;;;;5053783;28;20238;-76
2021/12/27 02:45:28;;;;;;;5.27;4.03;;;9.20;99.90;;;;;;5033540;28;20247;-78
2021/12/27 02:47:54;;;;;;;5.23;3.80;;;9.20;99.90;;;;;;5020460;28;20204;-77
2021/12/27 02:50:22;;;;;;;6.30;3.70;;;9.30;99.90;;;;;;5053755;28;20204;-77
2021/12/27 02:52:48;;;;;;;5.03;3.90;;;9.30;99.90;;;;;;5070132;28;20249;-78
2021/12/27 02:55:15;;;;;;;5.27;3.43;;;9.20;99.90;;;;;;5053126;28;20216;-77
2021/12/27 02:57:44;;;;;;;5.57;3.73;;;9.10;99.90;;;;;;5071760;28;20203;-81
2021/12/27 03:00:16;;;;;;;6.83;3.93;;;9.40;99.90;;;;;;5070398;28;20818;-82
2021/12/27 03:02:46;;;;;;;6.27;4.20;;;9.40;99.90;;;;;;5053611;28;20211;-77
2021/12/27 03:05:16;;;;;;;5.70;3.90;;;9.30;99.90;;;;;;5053132;28;20206;-77
2021/12/27 03:07:43;;;;;;;4.87;3.30;;;9.10;99.90;;;;;;5053889;28;20249;-77
2021/12/27 03:10:10;;;;;;;4.73;3.73;;;8.90;99.90;;;;;;5053903;28;20250;-82
2021/12/27 03:12:38;;;;;;;4.30;3.13;;;8.80;99.90;;;;;;5070268;28;20207;-77
2021/12/27 03:15:08;;;;;;;4.60;3.50;;;8.60;99.90;;;;;;5070863;28;20204;-82
2021/12/27 03:17:35;;;;;;;3.57;2.60;;;8.60;99.90;;;;;;5052758;28;20193;-76
2021/12/27 03:20:06;;;;;;;4.87;3.60;;;8.50;99.90;;;;;;5069784;28;20196;-81
2021/12/27 03:22:33;;;;;;;3.63;2.80;;;8.50;99.90;;;;;;5069949;28;20213;-82
2021/12/27 03:25:00;;;;;;;4.30;3.40;;;8.50;99.90;;;;;;5069705;28;20215;-82
2021/12/27 03:27:26;;;;;;;4.43;3.37;;;8.60;99.90;;;;;;5071037;28;20202;-77
2021/12/27 03:29:52;;;;;;;5.20;3.63;;;8.50;99.90;;;;;;5036736;28;20200;-82
2021/12/27 03:32:21;;;;;;;4.37;3.20;;;8.60;99.90;;;;;;5071022;28;20242;-77
2021/12/27 03:35:03;;;;;;;4.63;3.60;;;8.80;99.90;;;;;;5020883;28;20702;-81
2021/12/27 03:37:30;;;;;;;4.10;3.20;;;9.10;99.90;;;;;;5069617;28;20200;-77
2021/12/27 03:39:56;;;;;;;4.90;3.30;;;9.20;99.90;;;;;;5052688;28;20557;-80
2021/12/27 03:42:22;;;;;;;3.77;3.00;;;9.20;99.90;;;;;;5053100;28;20204;-79
2021/12/27 03:44:48;;;;;;;5.60;3.87;;;9.10;99.90;;;;;;5053077;28;20200;-77
2021/12/27 03:47:14;;;;;;;4.00;2.47;;;9.30;99.90;;;;;;5053229;28;20261;-83
2021/12/27 03:49:40;;;;;;;3.50;2.20;;;9.00;99.90;;;;;;5036700;28;20196;-77
2021/12/27 03:52:06;;;;;;;2.97;2.23;;;9.10;99.90;;;;;;5069650;28;20232;-77
2021/12/27 03:54:32;;;;;;;3.10;2.30;;;9.30;99.90;;;;;;5053289;28;20535;-76
2021/12/27 03:56:58;;;;;;;3.43;2.10;;;9.30;99.90;;;;;;5052784;28;20203;-77
2021/12/27 04:02:11;;;;;;;3.53;2.33;;;9.40;99.90;;;;;;5018991;28;20259;-82
2021/12/27 04:04:38;;;;;;;2.80;2.30;;;9.50;99.90;;;;;;5052691;28;20298;-81
2021/12/27 04:07:07;;;;;;;2.50;2.10;;;9.50;99.90;;;;;;5052905;28;20824;-76
2021/12/27 04:09:33;;;;;;;3.90;2.23;;;9.40;99.90;;;;;;5053174;28;20543;-77
2021/12/27 04:12:00;;;;;;;2.93;2.40;;;9.20;99.90;;;;;;5069224;28;20325;-81
2021/12/27 04:14:25;;;;;;;4.53;3.10;;;9.40;99.90;;;;;;5069147;28;20208;-79
2021/12/27 04:16:53;;;;;;;3.60;2.73;;;9.40;99.90;;;;;;5054803;28;20204;-76
2021/12/27 04:19:19;;;;;;;3.67;3.07;;;9.30;99.90;;;;;;5056927;28;20203;-77
2021/12/27 04:21:44;;;;;;;4.93;3.33;;;9.40;99.90;;;;;;5073004;28;20200;-77
2021/12/27 04:24:10;;;;;;;4.03;3.20;;;9.40;99.90;;;;;;5056700;28;20173;-81
2021/12/27 04:26:36;;;;;;;3.67;2.90;;;9.30;99.90;;;;;;5072774;28;20663;-77
2021/12/27 04:29:03;;;;;;;4.97;3.10;;;9.30;99.90;;;;;;5074241;28;20199;-82
2021/12/27 04:31:30;;;;;;;4.03;3.10;;;9.40;99.90;;;;;;5072972;28;20678;-81
2021/12/27 04:33:55;;;;;;;3.77;3.03;;;9.30;99.90;;;;;;5072761;28;20192;-81
2021/12/27 04:36:21;;;;;;;4.87;3.23;;;9.30;99.90;;;;;;5055933;28;20539;-77
2021/12/27 04:38:49;;;;;;;5.17;3.63;;;9.30;99.90;;;;;;5072564;28;20219;-77
2021/12/27 04:41:18;;;;;;;4.30;3.47;;;9.30;99.90;;;;;;5056503;28;20547;-77
2021/12/27 04:43:44;;;;;;;4.90;3.37;;;9.30;99.90;;;;;;5072741;28;20219;-78
2021/12/27 04:46:10;;;;;;;5.10;3.30;;;9.30;99.90;;;;;;5072670;28;20283;-77
2021/12/27 04:48:36;;;;;;;4.13;3.13;;;9.20;99.90;;;;;;5056218;28;20734;-77
2021/12/27 04:51:02;;;;;;;4.47;3.40;;;9.10;99.90;;;;;;5039660;28;20206;-82
2021/12/27 04:53:28;;;;;;;4.27;3.20;;;9.30;99.90;;;;;;5056370;28;20181;-82
2021/12/27 04:55:53;;;;;;;3.17;2.70;;;9.40;99.90;;;;;;5039321;28;20287;-82
2021/12/27 04:58:22;;;;;;;2.70;2.30;;;9.20;99.90;;;;;;5023118;28;20192;-77
2021/12/27 05:00:48;;;;;;;3.00;2.30;;;9.00;99.90;;;;;;5056392;28;20799;-78
2021/12/27 05:03:14;;;;;;;2.87;2.53;;;9.00;99.90;;;;;;5039477;28;20249;-78
2021/12/27 05:05:46;;;;;;;3.53;3.00;;;9.10;99.90;;;;;;5072361;28;20278;-82
2021/12/27 05:08:13;;;;;;;5.30;3.30;;;9.20;99.90;;;;;;5074467;28;20572;-78
2021/12/27 05:10:38;;;;;;;3.90;2.87;;;9.40;99.90;;;;;;5055935;28;20271;-76
2021/12/27 05:13:05;;;;;;;3.60;2.77;;;9.20;99.90;;;;;;5056082;28;20189;-84
2021/12/27 05:15:31;;;;;;;4.10;2.67;;;9.20;99.90;;;;;;5071824;28;20208;-78
2021/12/27 05:17:56;;;;;;;4.33;3.53;;;9.20;99.90;;;;;;5039308;28;20199;-79
2021/12/27 05:20:23;;;;;;;6.50;3.97;;;9.20;99.90;;;;;;5072009;28;20204;-77
2021/12/27 05:22:49;;;;;;;4.97;3.40;;;9.30;99.90;;;;;;5072088;28;20262;-85
2021/12/27 05:25:16;;;;;;;3.47;2.77;;;9.30;99.90;;;;;;5072449;28;20762;-83
2021/12/27 05:27:45;;;;;;;5.53;3.60;;;9.30;99.90;;;;;;5054763;28;20196;-77
2021/12/27 05:30:13;;;;;;;4.03;3.43;;;9.20;99.90;;;;;;5071705;28;20643;-77
2021/12/27 05:32:40;;;;;;;5.27;3.57;;;9.20;99.90;;;;;;5073968;28;20214;-83
2021/12/27 05:35:10;;;;;;;5.47;3.17;;;9.20;99.90;;;;;;5055408;28;20710;-82
2021/12/27 05:37:37;;;;;;;3.97;3.07;;;9.20;99.90;;;;;;5055538;28;20250;-83
2021/12/27 05:40:06;;;;;;;5.23;3.03;;;9.20;99.90;;;;;;5055295;28;20199;-77
2021/12/27 05:42:34;;;;;;;6.03;3.03;;;9.20;99.90;;;;;;5055183;28;20306;-82
2021/12/27 05:45:00;;;;;;;4.30;3.33;;;9.20;99.90;;;;;;5055106;28;20206;-76
2021/12/27 05:47:26;;;;;;;4.97;3.23;;;9.30;99.90;;;;;;5070900;28;20181;-76
2021/12/27 05:49:52;;;;;;;3.73;2.93;;;9.30;99.90;;;;;;5072050;28;20199;-75
2021/12/27 05:52:18;;;;;;;6.30;3.50;;;9.30;99.90;;;;;;5038564;28;20279;-77
2021/12/27 05:54:43;;;;;;;3.90;2.97;;;9.30;99.90;;;;;;5071724;28;20298;-79
2021/12/27 05:57:09;;;;;;;5.00;3.23;;;9.30;99.90;;;;;;5054692;28;20726;-82
2021/12/27 05:59:35;;;;;;;6.30;3.27;;;9.30;99.90;;;;;;5068620;28;20208;-77
2021/12/27 06:02:01;;;;;;;3.90;2.87;;;9.30;99.90;;;;;;5069818;28;20212;-81
2021/12/27 06:04:27;;;;;;;4.67;2.93;;;9.30;99.90;;;;;;5070264;28;20271;-77
2021/12/27 06:06:52;;;;;;;4.03;3.07;;;9.30;99.90;;;;;;5053363;28;20208;-77
2021/12/27 06:09:18;;;;;;;3.73;2.97;;;9.20;99.90;;;;;;5054111;28;20226;-81
2021/12/27 06:11:44;;;;;;;3.27;2.47;;;9.30;99.90;;;;;;5021437;28;20210;-81
2021/12/27 06:14:10;;;;;;;5.53;2.80;;;9.20;99.90;;;;;;5037550;28;20506;-81
2021/12/27 06:16:35;;;;;;;4.03;2.97;;;9.30;99.90;;;;;;5072495;28;20279;-82
2021/12/27 06:19:01;;;;;;;4.53;2.33;;;9.20;99.90;;;;;;5072177;28;20168;-80
2021/12/27 06:21:27;;;;;;;3.67;2.77;;;9.10;99.90;;;;;;5054051;28;20311;-77
2021/12/27 06:23:53;;;;;;;3.20;2.30;;;9.10;99.90;;;;;;5053742;28;20584;-82
2021/12/27 06:26:19;;;;;;;3.53;2.70;;;9.20;99.90;;;;;;5070810;28;20196;-81
2021/12/27 06:28:45;;;;;;;3.53;2.50;;;9.10;99.90;;;;;;5072603;28;20200;-82
2021/12/27 06:31:11;;;;;;;3.13;2.20;;;9.10;99.90;;;;;;5071124;28;20197;-77
2021/12/27 06:33:37;;;;;;;3.20;2.40;;;8.90;99.90;;;;;;5053919;28;20196;-82
2021/12/27 06:36:03;;;;;;;3.37;2.30;;;9.00;99.90;;;;;;5037950;28;20568;-77
2021/12/27 06:38:30;;;;;;;5.47;2.90;;;8.90;99.90;;;;;;5069796;28;20205;-81
2021/12/27 06:40:58;;;;;;;2.97;2.57;;;8.90;99.90;;;;;;5054141;28;20295;-78
2021/12/27 06:43:24;;;;;;;3.00;2.70;;;8.90;99.90;;;;;;5038142;28;20223;-80
2021/12/27 06:45:50;;;;;;;3.57;2.30;;;8.70;99.90;;;;;;5053607;28;20622;-77
2021/12/27 06:48:16;;;;;;;4.23;2.77;;;8.70;99.90;;;;;;5054153;28;20260;-81
2021/12/27 06:50:43;;;;;;;4.23;3.20;;;8.50;99.90;;;;;;5037322;28;20196;-79
2021/12/27 06:53:08;;;;;;;3.50;2.83;;;8.80;99.90;;;;;;5071485;28;20675;-78
2021/12/27 06:55:34;;;;;;;4.73;2.33;;;8.50;99.90;;;;;;5053168;28;20235;-80
2021/12/27 06:58:00;;;;;;;2.10;1.90;;;8.60;99.90;;;;;;5053381;28;20200;-82
2021/12/27 07:00:27;;;;;;;8.47;5.90;;;8.50;99.90;;;;;;5069574;28;20350;-83
2021/12/27 07:02:53;;;;;;;5.27;4.27;;;8.60;99.90;;;;;;5069408;28;20220;-77
2021/12/27 07:05:19;;;;;;;3.50;2.20;;;8.40;99.90;;;;;;5047692;28;20209;-81
2021/12/27 07:07:45;;;;;;;2.63;2.03;;;8.10;99.90;;;;;;5052746;28;20558;-77
2021/12/27 07:10:15;;;;;;;8.23;5.20;;;8.10;99.90;;;;;;5069018;28;20192;-77
2021/12/27 07:12:41;;;;;;;5.87;2.50;;;8.30;99.90;;;;;;5069427;28;20192;-76
2021/12/27 07:15:08;;;;;;;4.03;2.40;;;8.30;99.90;;;;;;5068742;28;20714;-82
2021/12/27 07:17:34;;;;;;;2.07;1.70;;;8.30;99.90;;;;;;5068325;28;20191;-82
2021/12/27 07:20:00;;;;;;;3.00;2.07;;;8.10;99.90;;;;;;5051334;28;20204;-81
2021/12/27 07:22:25;;;;;;;2.33;2.00;;;8.30;99.90;;;;;;5050494;28;20225;-78
2021/12/27 07:24:51;;;;;;;2.33;1.90;;;8.30;99.90;;;;;;5069622;28;20197;-77
2021/12/27 07:27:17;;;;;;;2.93;2.10;;;8.10;99.90;;;;;;5068741;28;20291;-76
2021/12/27 07:29:43;;;;;;;1.97;1.70;;;8.10;99.90;;;;;;5067941;28;20204;-77
2021/12/27 07:32:09;;;;;;;2.70;1.63;;;8.10;99.90;;;;;;5068810;28;20269;-81
2021/12/27 07:34:35;;;;;;;2.20;1.73;;;8.40;99.90;;;;;;5068429;28;20208;-81
2021/12/27 07:37:01;;;;;;;3.93;1.90;;;8.60;99.90;;;;;;5061131;28;20734;-80
2021/12/27 07:39:27;;;;;;;7.07;4.37;;;8.60;99.90;;;;;;5084435;28;20200;-77
2021/12/27 07:41:54;;;;;;;3.00;2.17;;;8.60;99.90;;;;;;5067919;28;20570;-77
2021/12/27 07:44:20;;;;;;;2.00;1.77;;;8.40;99.90;;;;;;5084717;28;20200;-80
2021/12/27 07:46:47;;;;;;;3.10;1.60;;;8.40;99.90;;;;;;5067794;28;20193;-77
2021/12/27 07:49:15;;;;;;;2.10;1.50;;;8.30;99.90;;;;;;5066592;28;20204;-78
2021/12/27 07:51:41;;;;;;;1.77;1.50;;;8.40;99.90;;;;;;5067655;28;20223;-77
2021/12/27 07:54:08;;;;;;;2.07;1.60;;;8.50;99.90;;;;;;5067678;28;20208;-80
2021/12/27 07:56:34;;;;;;;1.97;1.50;;;8.50;99.90;;;;;;5067805;28;20208;-78
2021/12/27 07:59:04;;;;;;;2.93;1.83;;;8.60;99.90;;;;;;5069334;28;20289;-77
2021/12/27 08:01:35;;;;;;;1.50;1.40;;;8.50;99.90;;;;;;5046206;28;20228;-76
2021/12/27 08:04:02;;;;;;;3.03;1.83;;;8.50;99.90;;;;;;5042880;28;20275;-77
2021/12/27 08:06:28;;;;;;;2.57;2.10;;;8.30;99.90;;;;;;5066996;28;20295;-77
2021/12/27 08:08:54;;;;;;;2.50;2.07;;;8.40;99.90;;;;;;5067512;28;20283;-78
2021/12/27 08:11:20;;;;;;;5.00;3.60;;;8.30;99.90;;;;;;5051142;28;20213;-77
2021/12/27 08:13:47;;;;;;;3.60;2.90;;;8.20;99.90;;;;;;5066973;28;20432;-77
2021/12/27 08:16:13;;;;;;;2.00;1.77;;;8.40;99.90;;;;;;5066814;28;20208;-75
2021/12/27 08:18:41;;;;;;;2.33;1.80;;;8.60;99.90;;;;;;5069100;28;20196;-77
2021/12/27 08:21:07;;;;;;;1.97;1.80;;;8.60;99.90;;;;;;5070226;28;20272;-80
2021/12/27 08:23:33;;;;;;;2.67;2.20;;;8.70;99.90;;;;;;5085544;28;20215;-77
2021/12/27 08:25:59;;;;;;;3.40;2.50;;;8.70;99.90;;;;;;5053113;28;20556;-82
2021/12/27 08:28:25;;;;;;;2.33;1.83;;;8.50;99.90;;;;;;5052312;28;20690;-80
2021/12/27 08:30:54;;;;;;;2.93;2.07;;;8.40;99.90;;;;;;5070279;28;20200;-80
2021/12/27 08:33:19;;;;;;;4.13;2.33;;;8.50;99.90;;;;;;5067426;28;20219;-74
2021/12/27 08:35:45;;;;;;;2.60;2.20;;;8.60;99.90;;;;;;5068258;28;20196;-76
2021/12/27 08:38:11;;;;;;;3.33;1.93;;;8.70;99.90;;;;;;5067893;28;20257;-75
2021/12/27 08:40:37;;;;;;;3.00;1.90;;;8.90;99.90;;;;;;5068996;28;20546;-81
2021/12/27 08:43:03;;;;;;;2.63;2.33;;;9.00;99.90;;;;;;5068979;28;20196;-74
2021/12/27 08:45:29;;;;;;;7.57;3.90;;;9.00;99.90;;;;;;5070324;28;20234;-76
2021/12/27 08:47:54;;;;;;;6.53;2.90;;;9.10;99.90;;;;;;5052484;28;20675;-74
2021/12/27 08:50:20;;;;;;;3.53;2.60;;;9.20;99.90;;;;;;5052363;28;20220;-76
2021/12/27 08:52:47;;;;;;;3.57;2.00;;;9.20;99.90;;;;;;5035634;28;20243;-80
2021/12/27 08:55:14;;;;;;;3.37;2.50;;;9.30;99.90;;;;;;5052202;28;20208;-74
2021/12/27 08:57:41;;;;;;;3.90;2.50;;;9.40;99.90;;;;;;5068442;28;20287;-76
2021/12/27 09:00:10;;;;;;;3.80;2.23;;;9.20;99.90;;;;;;5068923;28;20204;-80
2021/12/27 09:02:36;;;;;;;3.10;2.20;;;9.40;99.90;;;;;;5070523;28;20220;-73
2021/12/27 09:05:04;;;;;;;3.27;2.00;;;9.40;99.90;;;;;;5073990;28;20208;-79
2021/12/27 09:07:30;;;;;;;3.63;2.63;;;9.40;99.90;;;;;;5072637;28;20204;-76
2021/12/27 09:09:56;;;;;;;3.77;2.50;;;9.40;99.90;;;;;;5073989;28;20558;-79
2021/12/27 09:12:23;;;;;;;3.43;1.90;;;9.30;99.90;;;;;;5073388;28;20184;-82
2021/12/27 09:14:50;;;;;;;2.37;1.83;;;9.60;99.90;;;;;;5071996;28;20220;-81
2021/12/27 09:17:16;;;;;;;2.93;2.30;;;9.40;99.90;;;;;;5072876;28;20604;-78
2021/12/27 09:19:43;;;;;;;5.90;2.70;;;9.40;99.90;;;;;;5070634;28;20204;-77
2021/12/27 09:22:10;;;;;;;3.37;2.90;;;9.40;99.90;;;;;;5051796;28;20275;-80
2021/12/27 09:24:36;;;;;;;5.87;3.23;;;9.40;99.90;;;;;;5036143;28;20911;-81
2021/12/27 09:27:02;;;;;;;5.03;3.30;;;9.50;99.90;;;;;;5070647;28;20228;-77
2021/12/27 09:29:28;;;;;;;6.10;4.60;;;9.50;99.90;;;;;;5084686;28;20290;-76
2021/12/27 09:31:54;;;;;;;3.77;3.00;;;9.40;99.90;;;;;;5065227;28;20287;-77
2021/12/27 09:34:20;;;;;;;3.90;3.20;;;9.40;99.90;;;;;;5048155;28;20216;-76
2021/12/27 09:36:48;;;;;;;3.57;2.97;;;9.40;99.90;;;;;;5048611;28;20214;-76
2021/12/27 09:39:14;;;;;;;4.53;3.10;;;9.40;99.90;;;;;;5082995;28;20738;-79
2021/12/27 09:41:40;;;;;;;4.60;2.90;;;9.10;99.90;;;;;;5055283;28;20236;-80
2021/12/27 09:44:06;;;;;;;6.33;3.10;;;8.90;99.90;;;;;;5067021;28;20655;-78
2021/12/27 09:46:32;;;;;;;5.37;3.20;;;8.80;99.90;;;;;;5068554;28;20507;-77
2021/12/27 09:49:00;;;;;;;4.37;3.30;;;9.20;99.90;;;;;;5072748;28;20676;-79
2021/12/27 09:51:28;;;;;;;3.77;2.83;;;8.90;99.90;;;;;;5070751;28;20205;-79
2021/12/27 09:53:54;;;;;;;3.13;2.33;;;9.10;99.90;;;;;;5072223;28;20204;-79
2021/12/27 09:56:20;;;;;;;2.83;2.30;;;9.00;99.90;;;;;;5071443;28;20520;-79
2021/12/27 09:58:47;;;;;;;4.30;2.97;;;9.00;99.90;;;;;;5070902;28;20216;-79
2021/12/27 10:01:16;;;;;;;4.10;2.87;;;9.10;99.90;;;;;;5054834;28;20192;-81
2021/12/27 10:03:52;;;;;;;3.40;2.80;;;9.00;99.90;;;;;;5071729;28;20227;-80
2021/12/27 10:06:20;;;;;;;2.97;2.30;;;9.00;99.90;;;;;;5054408;28;20176;-78
2021/12/27 10:08:49;;;;;;;4.33;2.57;;;8.90;99.90;;;;;;5054936;28;20196;-80
2021/12/27 10:11:20;;;;;;;2.33;1.60;;;9.10;99.90;;;;;;5088347;28;20192;-79
2021/12/27 10:14:07;;;;;;;3.30;2.30;;;9.20;99.90;;;;;;5038192;28;20273;-80
2021/12/27 10:16:39;;;;;;;5.30;2.30;;;9.50;99.90;;;;;;5054351;28;20358;-80
2021/12/27 10:19:08;;;;;;;2.37;1.60;;;9.40;99.90;;;;;;5070679;28;20263;-80
2021/12/27 10:21:34;;;;;;;2.17;1.90;;;9.50;99.90;;;;;;5072375;28;20228;-78
2021/12/27 10:24:21;;;;;;;1.87;1.53;;;9.60;99.90;;;;;;5070426;28;20219;-80
2021/12/27 10:26:49;;;;;;;2.73;1.87;;;9.70;99.90;;;;;;5053463;28;20204;-79
2021/12/27 10:29:27;;;;;;;2.07;1.80;;;9.60;99.90;;;;;;5053814;28;20192;-79
2021/12/27 10:31:59;;;;;;;2.03;1.60;;;9.80;99.90;;;;;;5054789;28;20237;-79
2021/12/27 10:34:28;;;;;;;3.10;2.00;;;9.90;99.90;;;;;;5070491;28;20192;-79
2021/12/27 10:37:10;;;;;;;2.33;1.80;;;10.00;99.90;;;;;;5070797;28;20215;-80
2021/12/27 10:39:56;;;;;;;5.00;3.30;;;10.00;99.90;;;;;;5019685;28;20603;-77
2021/12/27 10:43:00;;;;;;;3.57;2.47;;;10.20;99.90;;;;;;5066042;28;20197;-77
2021/12/27 10:45:26;;;;;;;2.43;1.77;;;10.20;99.90;;;;;;5048061;28;20777;-78
2021/12/27 10:47:57;;;;;;;3.40;1.93;;;10.30;99.90;;;;;;5066449;28;20299;-77
2021/12/27 10:50:25;;;;;;;6.17;3.20;;;10.20;99.90;;;;;;5050265;28;20231;-78
2021/12/27 10:52:55;;;;;;;3.60;2.23;;;10.20;99.90;;;;;;5083345;28;20188;-80
2021/12/27 10:55:25;;;;;;;4.07;1.90;;;10.10;99.90;;;;;;5035016;28;20245;-80
2021/12/27 10:57:52;;;;;;;2.80;1.80;;;10.20;99.90;;;;;;5037104;28;20200;-79
2021/12/27 11:00:28;;;;;;;4.17;3.00;;;10.40;99.90;;;;;;5069279;28;20692;-79
2021/12/27 11:02:57;;;;;;;4.10;3.30;;;10.40;99.90;;;;;;5061472;28;20249;-80
2021/12/27 11:05:26;;;;;;;2.20;1.80;;;10.40;99.90;;;;;;5083944;28;20211;-79
2021/12/27 11:07:54;;;;;;;2.17;1.87;;;10.50;99.90;;;;;;5037716;28;20291;-81
2021/12/27 11:10:21;;;;;;;2.77;1.63;;;10.60;99.90;;;;;;5052257;28;20197;-80
2021/12/27 11:12:49;;;;;;;3.33;2.17;;;10.70;99.90;;;;;;5069002;28;20295;-78
2021/12/27 11:15:15;;;;;;;2.40;1.70;;;10.60;99.90;;;;;;5051995;28;21207;-81
2021/12/27 11:17:42;;;;;;;2.37;1.70;;;10.60;99.90;;;;;;5085028;28;20228;-79
2021/12/27 11:20:10;;;;;;;3.10;2.03;;;10.70;99.90;;;;;;5068109;28;20567;-79
2021/12/27 11:22:44;;;;;;;2.03;1.83;;;11.00;99.90;;;;;;5067524;28;20586;-79
2021/12/27 11:25:36;;;;;;;2.23;1.67;;;11.20;99.90;;;;;;5067296;28;20707;-79
2021/12/27 11:28:05;;;;;;;4.63;2.57;;;11.00;99.90;;;;;;5083471;28;20203;-80
2021/12/27 11:30:33;;;;;;;2.47;1.90;;;10.80;99.90;;;;;;5066952;28;20196;-80
2021/12/27 11:33:19;;;;;;;2.30;1.90;;;10.70;99.90;;;;;;5034337;28;20580;-79
2021/12/27 11:35:51;;;;;;;2.80;2.13;;;10.70;99.90;;;;;;5066608;28;20242;-78
2021/12/27 11:38:29;;;;;;;2.63;1.87;;;10.70;99.90;;;;;;5067226;28;20271;-80
2021/12/27 11:40:55;;;;;;;5.00;3.37;;;10.70;99.90;;;;;;5067030;28;20200;-80
2021/12/27 11:43:21;;;;;;;5.67;3.57;;;10.70;99.90;;;;;;5069048;28;20558;-80
2021/12/27 11:45:53;;;;;;;3.27;2.43;;;10.70;99.90;;;;;;5066602;28;20555;-80
2021/12/27 11:48:25;;;;;;;9.93;6.43;;;10.70;99.90;;;;;;5068037;28;20199;-79
2021/12/27 11:51:05;;;;;;;3.33;2.13;;;10.90;99.90;;;;;;5051039;28;20505;-78
2021/12/27 11:53:47;;;;;;;2.47;1.87;;;10.90;99.90;;;;;;5069367;28;20208;-78
2021/12/27 11:56:38;;;;;;;2.47;1.90;;;11.00;99.90;;;;;;5067526;28;20188;-81
2021/12/27 11:59:25;;;;;;;3.57;2.10;;;11.00;99.90;;;;;;5051194;28;20539;-79
2021/12/27 12:02:00;;;;;;;4.80;2.30;;;11.00;99.90;;;;;;5050970;28;20209;-79
2021/12/27 12:04:42;;;;;;;5.63;2.57;;;11.10;99.90;;;;;;5046892;28;20327;-79
2021/12/27 12:07:35;;;;;;;2.30;1.70;;;11.20;99.90;;;;;;5048431;28;20539;-79
2021/12/27 12:10:13;;;;;;;2.77;2.03;;;11.10;99.90;;;;;;5041285;28;20599;-78
2021/12/27 12:12:39;;;;;;;3.30;2.43;;;11.10;99.90;;;;;;5073987;28;20196;-79
2021/12/27 12:15:09;;;;;;;2.30;2.00;;;11.10;99.90;;;;;;5068580;28;20257;-79
2021/12/27 12:17:43;;;;;;;2.90;1.97;;;11.10;99.90;;;;;;5069522;28;20273;-78
2021/12/27 12:20:47;;;;;;;2.77;2.20;;;11.10;99.90;;;;;;5068067;28;20196;-80
2021/12/27 12:23:13;;;;;;;2.93;2.40;;;11.00;99.90;;;;;;4971337;28;20218;-77
2021/12/27 12:25:39;;;;;;;3.20;2.57;;;11.10;99.90;;;;;;4987299;28;20211;-78
2021/12/27 12:28:11;;;;;;;4.40;2.50;;;11.20;99.90;;;;;;5016373;28;20200;-78
2021/12/27 12:30:39;;;;;;;4.00;2.33;;;11.10;99.90;;;;;;5047976;28;20205;-79
2021/12/27 12:33:10;;;;;;;5.03;3.00;;;11.00;99.90;;;;;;5048403;28;20196;-78
2021/12/27 12:35:43;;;;;;;2.80;2.13;;;11.10;99.90;;;;;;5049483;28;20562;-80
2021/12/27 12:38:20;;;;;;;2.97;2.40;;;11.00;99.90;;;;;;5050564;28;20193;-79
2021/12/27 12:41:02;;;;;;;4.13;3.40;;;11.00;99.90;;;;;;5068164;28;20219;-78
2021/12/27 12:43:51;;;;;;;3.93;2.83;;;11.00;99.90;;;;;;5072162;28;20647;-79
2021/12/27 12:46:23;;;;;;;2.97;2.50;;;11.00;99.90;;;;;;5071969;28;20273;-80
2021/12/27 12:49:14;;;;;;;3.27;2.23;;;11.00;99.90;;;;;;5071845;28;20203;-80
2021/12/27 12:51:49;;;;;;;4.97;2.80;;;11.10;99.90;;;;;;5072610;28;20200;-80
2021/12/27 12:54:24;;;;;;;5.97;4.53;;;10.90;99.90;;;;;;5071648;28;20551;-80
2021/12/27 12:57:02;;;;;;;4.67;3.23;;;11.00;99.90;;;;;;5072298;28;20191;-79
2021/12/27 12:59:35;;;;;;;4.23;2.70;;;10.90;99.90;;;;;;5071503;28;20188;-79
2021/12/27 13:02:06;;;;;;;3.30;2.53;;;11.00;99.90;;;;;;5071271;28;20677;-80
2021/12/27 13:04:46;;;;;;;4.77;2.37;;;11.00;99.90;;;;;;5071617;28;20204;-79
2021/12/27 13:07:14;;;;;;;2.67;2.00;;;10.90;99.90;;;;;;5071359;28;20267;-79